METAR Data
IDs: Format: Raw Decoded Include TAF

Data at: 1122 UTC 09 Jul 2020

KGDP 091051Z AUTO 24014KT 9SM CLR 24/12 A3008 RMK AO2 SLP078 T02440122
KGDP 090951Z AUTO 25014KT 10SM CLR 25/11 A3007 RMK AO2 SLP073 T02500111
KGDP 090851Z AUTO 25011KT 10SM CLR 27/09 A3007 RMK AO2 SLP073 T02670094 58006
KGDP 090751Z AUTO 25008KT 10SM CLR 27/08 A3007 RMK AO2 SLP073 T02720083
KGDP 090651Z AUTO 08008KT 10SM CLR 28/08 A3009 RMK AO2 SLP078 T02780083
KGDP 090551Z AUTO 14004KT 10SM CLR 28/09 A3009 RMK AO2 SLPNO T02830089 10361 20272 50005
KGDP 090451Z AUTO VRB05KT 10SM CLR 28/09 A3009 RMK AO2 SLPNO T02830089
KGDP 090351Z AUTO 06007KT 10SM CLR 28/09 A3009 RMK AO2 SLPNO T02780094
KGDP 090251Z AUTO 09007KT 10SM CLR 28/10 A3007 RMK AO2 SLPNO T02830100 53008
KGDP 090151Z AUTO 09012KT 9SM CLR 30/10 A3006 RMK AO2 SLPNO T03000100
KGDP 090051Z AUTO 09011KT 9SM SCT110 33/09 A3005 RMK AO2 SLPNO T03280089
KGDP 082351Z AUTO 32005G16KT 9SM CLR 34/07 A3004 RMK AO2 SLPNO T03440067
KGDP 082251Z AUTO 08006KT 9SM 35/07 RMK AO2 SLPNO T03500067 $
KGDP 082151Z AUTO 23012KT 9SM FEW110 37/07 A3006 RMK AO2 SLPNO T03670072
KGDP 082051Z AUTO 24008G22KT 9SM CLR 36/08 A3008 RMK AO2 SLPNO T03560083 56015
KGDP 081951Z AUTO 25011KT 9SM CLR 36/08 A3010 RMK AO2 SLPNO T03560083
KGDP 081851Z AUTO 25017G23KT 9SM CLR 35/09 A3012 RMK AO2 SLPNO T03500094
KGDP 081751Z AUTO 23017G25KT 9SM CLR A3013 RMK AO2 SLPNO 56003 $
KGDP 081651Z AUTO 23018KT 9SM CLR A3013 RMK AO2 SLPNO $
KGDP 081551Z AUTO 25014KT 9SM CLR A3013 RMK AO2 SLPNO $
KGDP 081451Z AUTO 23009KT 9SM CLR A3014 RMK AO2 SLPNO 52003 $
KGDP 081351Z AUTO 21009KT 8SM CLR A3014 RMK AO2 SLPNO $
KGDP 081251Z AUTO 25008KT 9SM CLR A3013 RMK AO2 SLPNO $
KGDP 081151Z AUTO 20003KT 10SM CLR A3013 RMK AO2 SLPNO 53003 $